AirNav   Pilot Hours Calculator
 
 532 users online  

3AL8 Flint River Ranch Airport
Owens Crossroads, Alabama, USA

GOING TO OWENS CROSSROADS?


FAA INFORMATION EFFECTIVE 31 JANUARY 2019

Location

FAA Identifier: 3AL8
Lat/Long: 34-37-09.0000N / 086-28-01.0000W
34-37.150000N / 086-28.016667W
34.6191667 / -86.4669444
(estimated)
Elevation: 590 ft. / 180 m (estimated)
Variation: 01W (1995)
From city: 2 miles N of OWENS CROSSROADS, AL
Time zone: UTC -6 (UTC -5 during Daylight Saving Time)
Zip code: 35763

Airport Operations

Airport use: Private use. Permission required prior to landing
Activation date: 02/1999
Control tower: no
ARTCC: MEMPHIS CENTER
FSS: ANNISTON FLIGHT SERVICE STATION
Attendance: UNATNDD
Wind indicator: yes
Segmented circle: no

Airport Communications

WX AWOS-3PT at MDQ (15 nm N): 120.000 (256-829-1242)
WX ASOS at HSV (15 nm W): PHONE 256-772-8074

Nearby radio navigation aids

VOR radial/distance  VOR name  Freq  Var
RQZr140/13.5ROCKET VORTAC112.2002E
DCUr095/23.4DECATUR VOR/DME112.8001W

 
NDB name  Hdg/Dist  Freq  Var  ID
REDSTONE118/11.928704WHUA .... ..- .-
FORT PAYNE283/39.642604WFTP ..-. - .--.

Airport Services

Runway Information

Runway 17/35

Dimensions: 2669 x 30 ft. / 814 x 9 m
RY 17/35 HAS A 600 FT BY 30 FT TURF OVERRUN ON NORTH END.
Surface: asphalt
RUNWAY 17  RUNWAY 35
Traffic pattern: leftleft
Obstructions: 68 ft. tree, 658 ft. from runway68 ft. tree, 651 ft. from runway

Airport Ownership and Management from official FAA records

Ownership: Privately-owned
Owner: FLINT RIVER FARM, LLC
517 ADAMS ST.
HUNTSVILLE, AL 35801
Phone 256-319-7800
Manager: WILLIAM J. PROPST, SR.
517 ADAMS ST.
HUNTSVILLE, AL 35801
Phone 256-319-7800

Airport Operational Statistics

Aircraft based on the field: 1
Multi engine airplanes: 1
    

Additional Remarks

450 FT HILL 1.5 NM EAST OF ARPT.

Instrument Procedures

There are no published instrument procedures at 3AL8.

Some nearby airports with instrument procedures:

KHUA - Redstone Army Airfield (11 nm W)
KMDQ - Huntsville Executive Airport / Tom Sharp Jr Field (15 nm N)
KHSV - Huntsville International Airport-Carl T Jones Field (15 nm W)
8A1 - Guntersville Municipal Airport - Joe Starnes Field (16 nm SE)
4A6 - Scottsboro Municipal Airport-Word Field (23 nm E)
 
Loc | Ops | Rwys | IFR | FBO | Links
Com | Nav | Svcs | Stats | Notes
Area around 3AL8 (Flint River Ranch Airport)
 
Road maps at: MapQuest Bing Google
 
Aerial photo
No photo
 
Sectional chart

 
Airport distance calculator
Flying to Flint River Ranch Airport? Find the distance to fly.

From to 3AL8

Sunrise and sunset
Times for 22-Feb-2019
 Local
(UTC-6)
 Zulu
(UTC)
Morning civil twilight05:5911:59
Sunrise06:2512:25
Sunset17:3423:34
Evening civil twilight18:0024:00

Current date and time
Zulu (UTC)  23-Feb-2019 05:44:35
Local (UTC-6)  22-Feb-2019 23:44:35
 
METAR
KHUA 
11nm W 
230518Z AUTO 13008KT 8SM -RA SCT009 BKN014 BKN039 OVC075 12/11 A3008 RMK AO2 RAB02 CIG 014V041 BKN014 V SCT SLP187
KMDQ 
15nm N 
230535Z AUTO 12006KT 10SM -RA BKN042 OVC065 12/11 A3009 RMK A02 T01180110
KHSV 
16nm W 
230453Z 11012KT 10SM BKN007 OVC041 12/11 A3009 RMK AO2 RAE52 SLP187 P0001 T01220111 $
TAF
KHSV 
16nm W 
230211Z 2302/2324 06007KT P6SM OVC007 FM230600 13008KT 5SM BR VCSH SCT004 BKN007 OVC015 FM231300 16012KT P6SM -SHRA BKN015 OVC025 FM231700 17012G20KT P6SM SCT015 BKN025
NOTAMs
Click for the latest NOTAMs
NOTAMs are issued by the DoD/FAA and will open in a separate window not controlled by AirNav.

 

 
 

Would you like to see your business listed on this page?

 If your business provides an interesting product or service to pilots, flight crews, aircraft, or users of the Flint River Ranch Airport, you should consider listing it here.  To start the listing process, click on the button below
 
Add a business
 

Other Pages about Flint River Ranch Airport

Update a link
 
Copyright © AirNav, LLC. All rights reserved. Privacy Policy  Contact